Last 48 Hours

Top Stn/Summit - 11,053ft

15 Minute Data | America/Los_Angeles
as of 5/9/26 7:53 PM PDT
Date & Time Temp (°F) WindChill (°F) RH (%) Dew Pt (°F) Wet Bulb (°F) Wind Dir (°) Wind Spd (mph) Wind Gust (mph) Wind Gst Dir (°) Daily Min Temp (°F) Daily Max Temp (°F) Daily Max Wind (mph)
5/9/26 - 1945 48.1 42.9 32 19.6 37.4 N | 3 9.0 16.0 N | 2 36.6 53.6 26.7
5/9/26 - 1930 48.4 45.0 32 19.6 37.5 NNW | 348 4.2 11.2 NNW | 333 36.6 53.6 26.7
5/9/26 - 1915 48.5 47.3 33 20.6 37.8 NNW | 329 1.5 6.0 NNW | 344 36.6 53.6 26.7
5/9/26 - 1900 49.7 46.2 30 19.5 38.2 NNW | 346 4.7 12.4 N | 3 36.6 53.6 26.7
5/9/26 - 1845 52.8 - 36 26.4 41.6 WNW | 291 0.2 0.2 WNW | 299 36.6 53.6 26.7
5/9/26 - 1830 50.1 - 35 23.2 39.4 WNW | 294 0.5 5.3 NW | 319 36.6 53.5 26.7
5/9/26 - 1815 51.3 - 36 25.4 40.6 WSW | 255 1.1 7.9 NNW | 327 36.6 53.5 26.7
5/9/26 - 1800 52.0 - 36 25.9 41.0 WSW | 249 0.8 5.4 SW | 231 36.6 53.5 26.7
5/9/26 - 1745 52.0 - 38 27.3 41.5 SW | 232 0.3 1.8 SW | 221 36.6 53.5 26.7
5/9/26 - 1730 51.4 - 40 27.8 41.3 SW | 235 1.1 7.3 SW | 219 36.6 53.5 26.7
5/9/26 - 1715 50.8 - 36 25.2 40.3 WSW | 256 1.4 9.2 SW | 234 36.6 53.5 26.7
5/9/26 - 1700 52.6 - 40 28.9 42.3 SW | 220 4.2 10.4 SW | 223 36.6 53.5 26.7
5/9/26 - 1645 51.4 - 39 27.2 41.2 SW | 224 1.0 5.8 SW | 232 36.6 52.7 26.7
5/9/26 - 1630 50.5 - 34 23.4 39.6 SW | 223 1.6 8.6 SW | 222 36.6 51.7 26.7
5/9/26 - 1615 49.8 45.5 34 22.7 39.1 SW | 221 6.6 15.3 SW | 220 36.6 50.9 26.7
5/9/26 - 1600 49.3 43.4 35 22.8 38.8 SW | 220 11.4 21.0 SW | 220 36.6 50.9 26.7
5/9/26 - 1545 49.8 44.7 36 24.0 39.4 SW | 220 9.7 17.3 SW | 220 36.6 50.9 26.7
5/9/26 - 1530 49.1 44.3 37 24.2 39.1 SW | 220 8.6 15.4 SW | 219 36.6 50.9 26.7
5/9/26 - 1515 49.4 44.4 37 24.1 39.2 SW | 219 9.7 16.5 SW | 219 36.6 50.9 26.7
5/9/26 - 1500 48.8 42.9 37 24.0 38.9 SW | 219 10.9 20.5 SW | 219 36.6 50.9 26.7
5/9/26 - 1445 49.5 45.1 36 23.4 39.1 SW | 219 7.5 14.6 SW | 218 36.6 50.9 26.7
5/9/26 - 1430 48.2 42.2 36 22.6 38.2 SW | 218 11.5 20.4 SW | 219 36.6 48.9 26.7
5/9/26 - 1415 48.4 42.6 37 23.2 38.4 SW | 218 10.5 19.2 SW | 219 36.6 48.9 26.7
5/9/26 - 1400 47.8 41.2 39 23.8 38.3 SW | 218 11.5 23.6 SW | 218 36.6 48.7 26.7
5/9/26 - 1345 47.3 41.8 41 24.6 38.3 SW | 218 9.4 15.8 SW | 218 36.6 47.6 26.7
5/9/26 - 1330 46.7 40.7 42 25.1 38.1 SW | 218 11.0 17.4 SW | 217 36.6 47.1 26.7
5/9/26 - 1315 46.4 39.6 43 25.1 37.9 SW | 217 12.0 20.9 SW | 216 36.6 46.7 26.7
5/9/26 - 1300 46.2 38.6 43 24.7 37.7 SW | 216 15.2 24.9 SW | 216 36.6 46.5 26.7
5/9/26 - 1245 45.8 38.7 43 24.6 37.5 SW | 216 13.2 21.0 SW | 216 36.6 45.9 26.7
5/9/26 - 1230 45.4 38.8 42 23.8 37.0 SW | 216 12.2 17.5 SW | 216 36.6 45.9 26.7
5/9/26 - 1215 44.6 36.7 46 25.0 37.0 SW | 215 14.7 23.7 SW | 215 36.6 45.1 26.7
5/9/26 - 1200 44.4 36.4 46 25.0 36.9 SW | 215 15.2 23.5 SW | 215 36.6 44.9 26.7
5/9/26 - 1145 43.8 35.1 48 25.2 36.5 SW | 215 16.7 26.7 SW | 215 36.6 44.2 26.7
5/9/26 - 1130 43.2 35.3 48 24.8 36.1 SSW | 213 14.2 20.2 SSW | 213 36.6 43.6 26.3
5/9/26 - 1115 42.8 34.2 50 25.7 36.2 SW | 214 16.0 24.1 SW | 214 36.6 43.0 26.3
5/9/26 - 1100 42.6 33.6 51 25.8 36.0 SSW | 213 16.0 26.0 SSW | 213 36.6 42.8 26.3
5/9/26 - 1045 42.2 33.9 50 25.1 35.6 SSW | 213 14.5 20.7 SSW | 213 36.6 42.6 26.3
5/9/26 - 1030 41.6 33.2 51 24.7 35.2 SSW | 211 13.8 20.4 SSW | 213 36.6 41.8 26.3
5/9/26 - 1015 41.2 33.4 49 23.7 34.7 SSW | 211 11.6 18.8 SSW | 213 36.6 41.7 26.3
5/9/26 - 1000 40.8 33.6 52 24.5 34.6 SSW | 213 10.2 14.8 SSW | 213 36.6 41.0 26.3
5/9/26 - 0945 40.4 32.0 53 24.6 34.5 SSW | 213 12.8 19.6 SSW | 213 36.6 40.9 26.3
5/9/26 - 0930 39.8 31.2 54 24.4 34.0 SSW | 213 13.2 19.3 SSW | 213 36.6 40.9 26.3
5/9/26 - 0915 39.8 32.1 55 25.0 34.3 SSW | 212 11.0 16.1 SSW | 212 36.6 40.9 26.3
5/9/26 - 0900 39.9 32.9 56 25.5 34.4 SSW | 212 10.0 13.4 SSW | 212 36.6 40.9 26.3
5/9/26 - 0845 39.6 32.1 56 25.2 34.2 SSW | 210 10.4 15.0 SSW | 210 36.6 40.9 26.3
5/9/26 - 0830 39.2 31.7 57 25.3 34.0 SSW | 207 9.4 15.2 SSW | 209 36.6 40.9 26.3
5/9/26 - 0815 38.8 30.6 56 24.3 33.4 SSW | 193 12.1 16.2 S | 190 36.6 40.9 26.3
5/9/26 - 0800 38.5 29.8 54 23.2 32.9 SE | 142 13.7 17.1 SSE | 168 36.6 40.9 26.3
5/9/26 - 0745 38.4 29.4 54 23.4 32.9 NE | 51 14.1 17.9 NE | 48 36.6 40.9 26.3
5/9/26 - 0730 37.5 28.0 58 24.0 32.6 ENE | 72 15.0 19.2 E | 80 36.6 40.9 26.3
5/9/26 - 0715 37.0 27.4 60 24.4 32.4 NNE | 33 14.6 19.5 NE | 34 36.6 40.9 26.3
5/9/26 - 0700 37.0 26.6 59 24.0 32.3 N | 11 16.0 23.8 N | 10 36.6 40.9 26.3
5/9/26 - 0645 37.0 26.3 57 23.4 32.1 N | 11 18.0 24.3 N | 10 36.9 40.9 26.3
5/9/26 - 0630 37.2 26.5 57 23.2 32.1 NNE | 12 18.5 23.8 N | 5 37.0 40.9 26.3
5/9/26 - 0615 37.5 26.7 54 22.5 32.1 NNE | 18 18.1 26.3 N | 9 37.2 40.9 26.3
5/9/26 - 0600 38.0 28.1 50 21.1 32.0 NNE | 26 16.2 21.2 NNE | 26 37.7 40.9 21.2
5/9/26 - 0545 38.4 29.3 49 20.9 32.2 NNE | 25 14.1 18.9 NNE | 25 38.2 40.9 20.2
5/9/26 - 0530 38.6 29.8 48 20.7 32.3 NNE | 23 13.7 17.6 NNE | 21 38.3 40.9 20.2
5/9/26 - 0515 38.7 30.4 48 20.8 32.4 NNE | 26 12.3 16.6 NNE | 25 38.6 40.9 20.2
5/9/26 - 0500 38.8 31.1 49 21.1 32.5 NE | 50 11.3 14.3 ENE | 77 38.8 40.9 20.2
5/9/26 - 0445 38.9 31.0 48 21.0 32.6 NE | 54 11.5 14.9 NE | 47 38.8 40.9 20.2
5/9/26 - 0430 39.2 32.1 45 19.5 32.3 E | 88 9.8 12.9 ESE | 102 39.0 40.9 20.2
5/9/26 - 0415 39.3 32.8 44 19.5 32.4 ESE | 116 9.0 11.3 ESE | 120 39.1 40.9 20.2
5/9/26 - 0400 39.4 32.4 45 19.7 32.5 E | 86 9.8 13.0 ESE | 121 39.1 40.9 20.2
5/9/26 - 0345 39.2 32.3 47 20.6 32.7 NE | 55 8.8 13.0 NNE | 16 39.1 40.9 20.2
5/9/26 - 0330 39.3 32.4 47 20.6 32.7 ENE | 67 9.4 12.7 NNE | 15 39.1 40.9 20.2
5/9/26 - 0315 39.5 31.7 49 21.9 33.2 NNE | 19 10.9 15.8 N | 5 39.1 40.9 20.2
5/9/26 - 0300 39.7 31.6 48 21.7 33.2 NNE | 15 12.3 16.5 N | 7 39.5 40.9 20.2
5/9/26 - 0245 39.8 32.8 49 22.3 33.4 NNE | 21 9.8 13.3 NE | 36 39.7 40.9 20.2
5/9/26 - 0230 40.0 31.8 50 23.0 33.8 NNE | 15 12.3 17.9 N | 1 39.7 40.9 20.2
5/9/26 - 0215 39.9 31.4 52 23.9 34.0 NNE | 14 13.5 18.6 N | 11 39.7 40.9 20.2
5/9/26 - 0200 40.3 31.7 48 22.0 33.6 NNE | 24 14.2 19.3 NNE | 26 40.0 40.9 20.2
5/9/26 - 0145 40.4 31.6 47 21.8 33.7 NNE | 22 15.8 20.2 NNE | 23 40.2 40.9 20.2
5/9/26 - 0130 40.6 32.4 48 22.2 33.9 NNE | 19 13.8 17.5 NNE | 20 40.4 40.9 17.6
5/9/26 - 0115 40.8 32.6 47 22.3 34.0 NNE | 13 13.7 17.6 N | 11 40.7 40.9 17.6
5/9/26 - 0100 41.0 33.1 45 21.1 33.8 NNE | 12 12.6 17.2 N | 11 33.8 46.0 35.3
5/9/26 - 0045 41.3 33.7 41 19.6 33.6 NNE | 25 12.2 16.3 N | 7 33.8 46.0 35.3
5/9/26 - 0030 41.5 34.8 38 17.9 33.3 NE | 47 10.4 13.0 ENE | 74 33.8 46.0 35.3
5/9/26 - 0015 41.7 34.3 38 17.9 33.4 NNE | 19 11.4 16.3 NNE | 21 33.8 46.0 35.3
5/9/26 - 0000 42.2 34.8 36 17.5 33.6 NNE | 14 12.9 16.8 N | 11 33.8 46.0 35.3
5/8/26 - 2345 42.3 34.9 37 17.6 33.7 NNE | 14 12.9 16.4 NNE | 12 33.8 46.0 35.3
5/8/26 - 2330 42.3 35.0 38 18.4 33.9 N | 11 12.3 16.6 N | 10 33.8 46.0 35.3
5/8/26 - 2315 42.5 35.0 40 19.8 34.3 NNE | 22 12.6 17.5 NNE | 31 33.8 46.0 35.3
5/8/26 - 2300 42.9 36.4 46 23.7 35.6 NE | 34 10.5 14.5 NE | 44 33.8 46.0 35.3
5/8/26 - 2245 43.5 37.7 42 22.0 35.5 SW | 221 7.7 13.6 NE | 48 33.8 46.0 35.3
5/8/26 - 2230 44.2 39.1 34 17.3 34.7 SW | 220 7.0 12.1 SW | 220 33.8 46.0 35.3
5/8/26 - 2215 43.6 40.2 42 21.9 35.5 SW | 220 2.9 8.6 SW | 220 33.8 46.0 35.3
5/8/26 - 2200 43.6 38.1 46 24.3 36.2 SW | 220 7.1 13.0 SW | 220 33.8 46.0 35.3
5/8/26 - 2145 43.0 37.7 60 30.1 37.8 SW | 220 7.6 11.2 SW | 220 33.8 46.0 35.3
5/8/26 - 2130 43.1 37.4 49 25.4 36.3 SW | 220 9.0 11.4 SW | 220 33.8 46.0 35.3
5/8/26 - 2115 43.2 36.9 55 28.1 37.1 SW | 220 9.8 13.8 SW | 220 33.8 46.0 35.3
5/8/26 - 2100 43.3 36.6 55 28.2 37.2 SW | 220 11.4 14.7 SW | 220 33.8 46.0 35.3
5/8/26 - 2045 43.4 36.6 55 28.3 37.4 SW | 220 12.3 15.5 SW | 220 33.8 46.0 35.3
5/8/26 - 2030 43.7 36.7 56 28.9 37.7 SW | 219 12.5 16.0 SW | 218 33.8 46.0 35.3
5/8/26 - 2015 42.9 36.0 71 34.2 39.3 SW | 218 12.2 14.9 SW | 219 33.8 46.0 35.3
5/8/26 - 2000 43.2 36.4 74 35.5 40.0 SW | 219 12.1 15.0 SW | 219 33.8 46.0 35.3
5/8/26 - 1945 44.2 37.6 72 35.8 40.6 SW | 219 12.0 15.4 SW | 219 33.8 46.0 35.3
5/8/26 - 1930 44.8 37.9 70 35.6 40.8 SW | 219 12.7 18.7 SW | 219 33.8 46.0 35.3
5/8/26 - 1915 44.9 38.0 69 35.3 40.8 SW | 219 13.4 17.7 SW | 219 33.8 46.0 35.3
5/8/26 - 1900 45.3 38.4 69 35.7 41.2 SW | 219 13.6 18.1 SW | 219 33.8 46.0 35.3
5/8/26 - 1845 44.2 36.7 75 36.7 41.0 SW | 219 14.3 19.8 SW | 218 33.8 46.0 35.3
5/8/26 - 1830 43.9 35.7 77 37.0 41.0 SW | 218 16.1 22.6 SW | 218 33.8 46.0 35.3
5/8/26 - 1815 43.6 35.0 77 36.9 40.8 SW | 218 17.9 25.0 SW | 218 33.8 46.0 35.3
5/8/26 - 1800 43.8 34.7 75 36.5 40.7 SW | 215 18.6 28.8 SW | 214 33.8 46.0 35.3
5/8/26 - 1745 43.8 34.4 74 36.2 40.6 SW | 221 20.7 29.8 SW | 225 33.8 46.0 35.3
5/8/26 - 1730 44.6 35.6 71 35.8 40.8 SW | 217 20.6 28.0 SW | 216 33.8 46.0 35.3
5/8/26 - 1715 44.9 35.9 70 35.6 40.8 SW | 218 19.0 30.8 SW | 218 33.8 46.0 35.3
5/8/26 - 1700 45.2 36.6 69 35.5 41.0 SW | 220 17.5 28.7 SW | 220 33.8 46.0 35.3
5/8/26 - 1645 45.1 37.0 68 35.1 40.8 SW | 220 14.2 27.0 SW | 221 33.8 46.0 35.3
5/8/26 - 1630 45.6 36.6 67 35.3 41.1 SW | 222 18.3 34.8 SW | 220 33.8 46.0 35.3
5/8/26 - 1615 45.0 36.1 66 34.5 40.5 SW | 226 18.3 31.5 SW | 218 33.8 46.0 35.3
5/8/26 - 1600 45.0 36.3 66 34.4 40.5 SW | 217 18.9 29.2 SW | 216 33.8 46.0 35.3
5/8/26 - 1545 45.1 36.4 64 33.5 40.2 SW | 226 18.6 29.4 SW | 226 33.8 46.0 35.3
5/8/26 - 1530 45.6 37.1 60 32.7 40.1 SW | 219 18.3 28.6 SW | 216 33.8 46.0 35.3
5/8/26 - 1515 45.2 36.4 59 31.7 39.5 SW | 216 19.2 29.6 SW | 216 33.8 46.0 35.3
5/8/26 - 1500 45.4 36.3 57 31.0 39.4 SW | 219 21.1 33.1 SW | 219 33.8 46.0 35.3
5/8/26 - 1445 45.4 36.1 55 30.4 39.1 SW | 236 20.8 34.7 SW | 224 33.8 45.9 35.3
5/8/26 - 1430 44.9 35.5 54 29.1 38.4 SW | 224 20.6 33.8 WSW | 237 33.8 45.3 35.3
5/8/26 - 1415 44.7 35.3 52 28.2 38.0 SSW | 211 22.2 32.4 SW | 221 33.8 45.2 35.3
5/8/26 - 1400 44.4 34.8 49 26.3 37.2 SSW | 207 20.4 35.3 SSW | 204 33.8 45.0 35.3
5/8/26 - 1345 44.8 35.4 44 24.2 36.8 SW | 214 21.0 32.8 SW | 214 33.8 45.0 34.4
5/8/26 - 1330 44.2 35.2 40 21.7 35.8 SSW | 213 16.5 30.9 SSW | 213 33.8 44.8 34.4
5/8/26 - 1315 44.3 35.0 39 20.8 35.6 SSW | 213 21.2 31.1 SSW | 213 33.8 44.8 34.4
5/8/26 - 1300 43.7 33.9 39 20.3 35.1 SSW | 213 21.0 34.4 SSW | 213 33.8 44.1 34.4
5/8/26 - 1245 43.1 33.6 39 19.9 34.7 SW | 215 19.0 30.0 SW | 214 33.8 43.6 34.0
5/8/26 - 1230 43.2 33.5 37 18.7 34.5 SSW | 213 20.2 32.1 SW | 222 33.8 43.6 34.0
5/8/26 - 1215 43.3 33.4 35 17.3 34.2 SSW | 211 20.5 33.1 SSW | 212 33.8 43.6 34.0
5/8/26 - 1200 42.8 33.2 35 17.1 33.9 SSW | 208 19.7 30.1 SSW | 210 33.8 43.0 34.0
5/8/26 - 1145 42.7 33.2 33 15.9 33.6 SW | 221 19.0 29.0 SW | 222 33.8 43.0 34.0
5/8/26 - 1130 41.9 32.1 32 14.4 32.8 SW | 232 19.6 28.4 SW | 217 33.8 43.0 34.0
5/8/26 - 1115 41.6 31.9 27 10.3 31.8 SW | 220 19.1 27.9 SSW | 212 33.8 41.9 34.0
5/8/26 - 1100 41.2 31.0 27 9.5 31.4 SSW | 210 20.8 29.3 SSW | 210 33.8 41.6 34.0
5/8/26 - 1045 40.8 30.2 28 9.9 31.2 SSW | 211 22.0 29.8 SSW | 211 33.8 41.3 34.0
5/8/26 - 1030 40.0 28.8 31 11.8 31.1 SW | 218 23.8 31.2 SW | 222 33.8 40.3 34.0
5/8/26 - 1015 39.6 28.4 33 12.7 31.1 SW | 217 24.2 30.5 SW | 214 33.8 40.0 34.0
5/8/26 - 1000 39.3 28.2 33 12.9 30.9 SSW | 211 23.0 29.8 SSW | 210 33.8 39.8 34.0
5/8/26 - 0945 39.2 28.2 33 12.4 30.8 SSW | 212 22.4 29.3 SSW | 212 33.8 39.8 34.0
5/8/26 - 0930 38.9 27.8 32 11.2 30.4 SSW | 213 21.9 30.0 SSW | 212 33.8 39.8 34.0
5/8/26 - 0915 38.5 27.2 32 11.3 30.1 SW | 216 22.6 29.3 SW | 219 33.8 39.8 34.0
5/8/26 - 0900 39.2 28.4 31 11.2 30.5 SSW | 210 21.0 27.7 SSW | 211 33.8 39.8 34.0
5/8/26 - 0845 38.9 28.1 29 9.4 30.0 SSW | 210 21.4 27.4 SSW | 210 33.8 39.5 34.0
5/8/26 - 0830 38.0 26.9 31 9.8 29.5 SW | 214 21.4 26.8 SSW | 212 33.8 38.5 34.0
5/8/26 - 0815 37.8 26.5 29 8.7 29.2 SSW | 213 22.1 27.7 SSW | 211 33.8 38.2 34.0
5/8/26 - 0800 37.7 26.0 30 8.9 29.2 SSW | 213 22.8 30.0 SSW | 212 33.8 38.0 34.0
5/8/26 - 0745 36.8 24.6 34 10.8 29.0 SW | 222 24.2 30.6 SW | 222 33.8 38.0 34.0
5/8/26 - 0730 36.5 24.2 36 11.9 29.0 SW | 224 24.0 29.9 SW | 227 33.8 38.0 34.0
5/8/26 - 0715 36.7 24.5 35 11.9 29.1 SSW | 213 24.3 30.3 SSW | 211 33.8 38.0 34.0
5/8/26 - 0700 36.4 23.9 39 13.9 29.3 SW | 215 24.9 31.2 SW | 214 33.8 38.0 34.0
5/8/26 - 0645 36.4 24.1 42 15.4 29.6 SW | 217 23.7 30.7 SW | 214 33.8 38.0 34.0
5/8/26 - 0630 35.7 23.0 45 16.7 29.5 SW | 217 24.9 30.7 SW | 220 33.8 38.0 34.0
5/8/26 - 0615 35.0 22.1 50 18.2 29.4 SW | 216 24.7 31.1 SW | 214 33.8 38.0 34.0
5/8/26 - 0600 34.5 21.3 50 17.6 29.0 SW | 215 25.4 31.8 SW | 215 33.8 38.0 34.0
5/8/26 - 0545 34.3 21.1 59 21.3 29.8 SW | 218 25.2 31.3 SW | 216 33.8 38.0 34.0
5/8/26 - 0530 34.5 21.3 47 16.2 28.7 SW | 221 25.2 32.0 SW | 220 33.8 38.0 34.0
5/8/26 - 0515 35.1 22.0 36 10.5 27.8 SW | 220 25.4 32.4 SW | 222 34.4 38.0 34.0
5/8/26 - 0500 34.9 21.6 42 14.3 28.5 SW | 225 26.2 33.1 SW | 225 34.4 38.0 34.0
5/8/26 - 0445 34.8 21.5 47 16.6 29.0 SW | 228 26.0 33.8 SW | 226 34.4 38.0 34.0
5/8/26 - 0430 35.6 22.5 41 14.0 28.9 SW | 228 25.7 34.0 SW | 228 35.0 38.0 34.0
5/8/26 - 0415 35.9 23.3 41 14.3 29.1 SW | 228 24.4 31.6 SW | 227 35.0 38.0 31.6
5/8/26 - 0400 35.7 23.0 49 18.4 29.9 SW | 230 23.7 31.6 SW | 226 35.0 38.0 31.6
5/8/26 - 0345 35.6 23.2 63 24.0 31.4 SW | 230 22.6 29.5 SW | 229 35.0 38.0 29.5
5/8/26 - 0330 35.7 23.6 64 24.5 31.6 SW | 231 21.6 28.1 SW | 232 35.0 38.0 29.3
5/8/26 - 0315 35.7 23.8 60 23.3 31.3 SW | 228 20.9 27.4 SW | 226 35.0 38.0 29.3
5/8/26 - 0300 35.9 23.9 61 23.6 31.4 SW | 222 21.2 28.7 SW | 221 35.0 38.0 29.3
5/8/26 - 0245 35.3 23.0 70 26.4 32.0 SW | 220 22.3 29.3 SW | 219 35.0 38.0 29.3
5/8/26 - 0230 35.6 24.0 71 27.2 32.4 SW | 222 20.0 26.2 SW | 219 35.2 38.0 26.2
5/8/26 - 0215 36.3 25.1 69 27.2 32.8 SW | 218 19.4 24.9 SW | 218 36.1 38.0 24.9
5/8/26 - 0200 36.7 25.7 70 27.7 33.2 SW | 219 19.2 24.0 SW | 218 36.3 38.0 24.7
5/8/26 - 0145 37.1 26.2 66 26.9 33.2 SW | 223 19.4 24.7 SW | 223 36.6 38.0 24.7
5/8/26 - 0130 37.2 26.5 68 27.6 33.5 SW | 225 18.5 24.3 SW | 218 36.6 38.0 24.3
5/8/26 - 0115 37.5 26.9 75 30.1 34.6 WSW | 252 18.0 24.3 WSW | 249 36.9 38.0 24.3
5/8/26 - 0100 38.5 29.4 75 31.4 35.6 W | 267 13.4 20.0 W | 261 36.9 44.0 38.2
5/8/26 - 0045 38.5 29.4 82 33.4 36.4 W | 277 14.5 18.5 W | 279 36.9 44.0 38.2
5/8/26 - 0030 38.5 29.6 84 34.1 36.7 WNW | 284 14.7 18.0 W | 281 36.9 44.0 38.2
5/8/26 - 0015 38.5 29.1 87 34.8 37.0 W | 274 15.4 19.8 WNW | 282 36.9 44.0 38.2
5/8/26 - 0000 38.4 29.0 86 34.7 36.9 WSW | 250 15.6 20.0 SW | 215 36.9 44.0 38.2
5/7/26 - 2345 37.1 26.4 91 34.6 36.1 SW | 220 18.2 23.3 SW | 219 36.9 44.0 38.2
5/7/26 - 2330 37.4 26.8 88 34.2 36.1 SW | 223 18.7 23.1 SW | 217 37.0 44.0 38.2
5/7/26 - 2315 37.8 27.1 88 34.6 36.5 WSW | 240 19.5 25.1 SW | 226 37.0 44.0 38.2
5/7/26 - 2300 37.9 27.2 90 35.2 36.8 NW | 307 19.2 24.4 W | 266 37.0 44.0 38.2
5/7/26 - 2245 38.1 27.9 93 36.1 37.3 NW | 309 18.4 22.5 NW | 319 37.0 44.0 38.2
5/7/26 - 2230 37.9 27.4 99 37.7 37.9 NW | 320 18.9 23.7 NW | 325 37.0 44.0 38.2
5/7/26 - 2215 38.2 27.9 100 38.2 38.4 NNW | 327 18.8 23.5 NW | 320 37.0 44.0 38.2
5/7/26 - 2200 38.1 27.7 100 38.2 38.3 WNW | 296 19.0 23.5 SW | 230 37.0 44.0 38.2
5/7/26 - 2145 38.4 27.9 100 38.4 38.5 WNW | 300 19.3 24.7 SW | 226 37.0 44.0 38.2
5/7/26 - 2130 38.7 28.5 100 38.7 38.9 NW | 316 18.9 23.3 NW | 318 37.0 44.0 38.2
5/7/26 - 2115 38.9 28.7 100 38.9 39.0 WNW | 294 18.6 23.5 WNW | 300 37.0 44.0 38.2
5/7/26 - 2100 38.7 28.4 100 38.7 38.9 SW | 230 19.1 24.0 SW | 221 37.0 44.0 38.2
5/7/26 - 2045 39.0 28.6 100 39.0 39.2 WSW | 254 19.6 25.0 WNW | 286 37.0 44.0 38.2
5/7/26 - 2030 39.2 28.8 100 39.2 39.3 SW | 235 20.2 24.6 WSW | 245 37.0 44.0 38.2
5/7/26 - 2015 39.2 28.7 100 39.2 39.4 W | 264 20.4 26.2 WNW | 295 37.0 44.0 38.2
5/7/26 - 2000 39.3 28.8 100 39.3 39.5 SW | 234 20.3 26.3 SW | 215 37.0 44.0 38.2
5/7/26 - 1945 39.3 28.7 100 39.3 39.5 SW | 222 20.5 27.4 SSW | 212 37.0 44.0 38.2
Max 52.8 47.3 100 39.3 42.3 - 26.2 35.3 - 40.7 53.6 38.2
Avg 41.7 32.2 53 24.6 35.4 - 15.4 21.9 - - - -
Min 34.3 21.1 27 8.7 27.8 - 0.2 0.2 - 33.8 38.0 17.6